createdAt,value
2022-10-30T00:01:10.228Z,101560.81
2022-10-30T00:03:37.246Z,101560.75
2022-10-30T00:06:06.420Z,101552.88
2022-10-30T00:08:33.761Z,101558.06
2022-10-30T00:11:08.802Z,101555.41
2022-10-30T00:13:36.393Z,101554.47
2022-10-30T00:16:06.749Z,101561.38
2022-10-30T00:18:36.207Z,101561.38
2022-10-30T00:21:11.857Z,101550.88
2022-10-30T00:23:39.053Z,101551.72
2022-10-30T00:26:07.341Z,101563.03
2022-10-30T00:28:34.702Z,101559.53
2022-10-30T00:31:03.235Z,101557.81
2022-10-30T00:33:30.659Z,101552.56
2022-10-30T00:35:58.419Z,101543.81
2022-10-30T00:38:25.477Z,101546.47
2022-10-30T00:40:52.546Z,101559.50
2022-10-30T00:43:45.983Z,101544.69
2022-10-30T00:46:28.221Z,101549.03
2022-10-30T00:49:04.027Z,101549.03
2022-10-30T00:51:33.102Z,101543.00
2022-10-30T00:54:03.130Z,101540.41
2022-10-30T00:56:30.840Z,101537.78
2022-10-30T00:59:03.254Z,101547.28
2022-10-30T01:01:33.724Z,101547.25
2022-10-30T01:04:02.892Z,101549.88
2022-10-30T01:06:32.570Z,101549.88
2022-10-30T01:09:00.485Z,101557.69
2022-10-30T01:11:27.903Z,101551.63
2022-10-30T01:13:58.987Z,101545.59
2022-10-30T01:16:34.656Z,101550.78
2022-10-30T01:19:25.578Z,101546.41
2022-10-30T01:22:13.593Z,101552.47
2022-10-30T01:25:15.185Z,101544.59
2022-10-30T01:27:55.735Z,101555.06
2022-10-30T01:30:44.316Z,101563.72
2022-10-30T01:33:48.056Z,101560.16
2022-10-30T01:36:29.212Z,101551.44
2022-10-30T01:39:23.933Z,101563.53
2022-10-30T01:41:52.209Z,101565.22
2022-10-30T01:44:24.977Z,101567.81
2022-10-30T01:46:57.719Z,101566.06
2022-10-30T01:49:30.591Z,101574.69
2022-10-30T01:52:12.870Z,101578.97
2022-10-30T01:54:58.247Z,101578.88
2022-10-30T01:57:53.809Z,101571.84
2022-10-30T02:00:20.910Z,101572.66
2022-10-30T02:02:50.050Z,101576.09
2022-10-30T02:05:36.609Z,101572.56
2022-10-30T02:08:03.764Z,101570.81
2022-10-30T02:10:33.282Z,101564.56
2022-10-30T02:13:01.210Z,101579.31
2022-10-30T02:15:28.989Z,101578.41
2022-10-30T02:17:57.004Z,101566.16
2022-10-30T02:20:25.350Z,101585.25
2022-10-30T02:22:56.251Z,101566.84
2022-10-30T02:25:26.815Z,101591.19
2022-10-30T02:27:53.810Z,101587.75
2022-10-30T02:30:21.112Z,101579.94
2022-10-30T02:32:51.198Z,101578.03
2022-10-30T02:35:18.229Z,101588.38
2022-10-30T02:37:48.505Z,101588.28
2022-10-30T02:40:15.636Z,101594.19
2022-10-30T02:42:42.655Z,101588.06
2022-10-30T02:45:10.353Z,101592.31
2022-10-30T02:47:37.381Z,101589.66
2022-10-30T02:50:04.664Z,101590.56
2022-10-30T02:52:31.994Z,101587.91
2022-10-30T02:54:59.011Z,101587.88
2022-10-30T02:57:26.052Z,101585.25
2022-10-30T02:59:53.157Z,101586.03
2022-10-30T03:02:20.191Z,101585.19
2022-10-30T03:04:47.274Z,101589.47
2022-10-30T03:07:14.401Z,101593.78
2022-10-30T03:09:41.526Z,101590.19
2022-10-30T03:12:08.504Z,101595.34
2022-10-30T03:14:35.497Z,101585.66
2022-10-30T03:17:02.546Z,101595.22
2022-10-30T03:19:29.547Z,101589.00
2022-10-30T03:21:56.601Z,101590.66
2022-10-30T03:24:23.586Z,101590.66
2022-10-30T03:26:50.584Z,101584.59
2022-10-30T03:29:17.700Z,101586.25
2022-10-30T03:31:44.743Z,101592.28
2022-10-30T03:34:12.202Z,101599.06
2022-10-30T03:36:39.202Z,101602.44
2022-10-30T03:39:06.348Z,101604.13
2022-10-30T03:41:33.352Z,101599.81
2022-10-30T03:44:00.431Z,101599.72
2022-10-30T03:46:27.474Z,101604.94
2022-10-30T03:48:54.505Z,101607.53
2022-10-30T03:51:21.485Z,101597.13
2022-10-30T03:53:48.477Z,101603.19
2022-10-30T03:56:15.535Z,101603.28
2022-10-30T03:58:42.548Z,101595.47
2022-10-30T04:01:10.517Z,101597.16
2022-10-30T04:03:37.583Z,101600.59
2022-10-30T04:06:05.400Z,101598.81
2022-10-30T04:08:32.401Z,101605.66
2022-10-30T04:10:59.588Z,101602.22
2022-10-30T04:13:26.634Z,101602.25
2022-10-30T04:15:56.077Z,101597.97
2022-10-30T04:18:25.684Z,101596.28
2022-10-30T04:20:53.103Z,101599.72
2022-10-30T04:23:21.909Z,101585.69
2022-10-30T04:25:49.284Z,101589.22
2022-10-30T04:28:16.533Z,101582.28
2022-10-30T04:30:43.949Z,101583.19
2022-10-30T04:33:12.485Z,101593.56
2022-10-30T04:35:40.431Z,101588.38
2022-10-30T04:38:18.895Z,101587.44
2022-10-30T04:40:46.104Z,101585.53
2022-10-30T04:43:14.101Z,101589.91
2022-10-30T04:45:41.599Z,101585.69
2022-10-30T04:48:13.155Z,101591.78
2022-10-30T04:50:40.248Z,101588.31
2022-10-30T04:53:14.014Z,101587.47
2022-10-30T04:55:40.868Z,101585.81
2022-10-30T04:58:09.330Z,101591.88
2022-10-30T05:00:36.824Z,101595.25
2022-10-30T05:03:04.086Z,101583.06
2022-10-30T05:05:32.358Z,101589.00
2022-10-30T05:07:59.860Z,101601.09
2022-10-30T05:10:27.578Z,101601.84
2022-10-30T05:12:54.643Z,101603.38
2022-10-30T05:15:21.797Z,101600.75
2022-10-30T05:17:53.581Z,101610.06
2022-10-30T05:20:21.468Z,101598.63
2022-10-30T05:22:55.817Z,101598.69
2022-10-30T05:25:23.883Z,101598.56
2022-10-30T05:27:50.950Z,101598.56
2022-10-30T05:30:17.972Z,101602.03
2022-10-30T05:32:45.104Z,101592.38
2022-10-30T05:35:12.206Z,101595.81
2022-10-30T05:37:39.620Z,101599.97
2022-10-30T05:40:07.079Z,101592.88
2022-10-30T05:42:34.112Z,101589.47
2022-10-30T05:45:02.206Z,101602.34
2022-10-30T05:47:30.097Z,101604.03
2022-10-30T05:49:57.191Z,101585.84
2022-10-30T05:52:24.203Z,101585.81
2022-10-30T05:54:51.189Z,101584.09
2022-10-30T05:57:18.186Z,101589.22
2022-10-30T05:59:45.222Z,101590.16
2022-10-30T06:02:12.337Z,101591.91
2022-10-30T06:04:39.755Z,101582.41
2022-10-30T06:07:06.807Z,101595.44
2022-10-30T06:09:33.819Z,101591.97
2022-10-30T06:12:01.024Z,101581.59
2022-10-30T06:14:28.071Z,101576.34
2022-10-30T06:16:55.078Z,101578.13
2022-10-30T06:19:22.108Z,101579.88
2022-10-30T06:21:49.264Z,101582.50
2022-10-30T06:24:16.265Z,101575.47
2022-10-30T06:26:43.266Z,101585.91
2022-10-30T06:29:10.320Z,101597.97
2022-10-30T06:31:37.359Z,101606.53
2022-10-30T06:34:05.367Z,101605.56
2022-10-30T06:36:32.492Z,101615.00
2022-10-30T06:38:59.830Z,101589.72
2022-10-30T06:41:30.286Z,101600.28
2022-10-30T06:43:57.718Z,101597.63
2022-10-30T06:46:27.477Z,101594.97
2022-10-30T06:48:57.830Z,101599.28
2022-10-30T06:51:25.065Z,101603.66
2022-10-30T06:53:52.073Z,101602.84
2022-10-30T06:56:19.078Z,101603.69
2022-10-30T06:58:46.100Z,101609.66
2022-10-30T07:01:13.284Z,101620.72
2022-10-30T07:03:40.505Z,101616.31
2022-10-30T07:06:07.763Z,101611.03
2022-10-30T07:08:34.831Z,101613.72
2022-10-30T07:11:01.845Z,101602.53
2022-10-30T07:13:28.889Z,101606.84
2022-10-30T07:15:55.948Z,101605.16
2022-10-30T07:18:23.080Z,101606.97
2022-10-30T07:20:56.095Z,101599.28
2022-10-30T07:23:23.826Z,101587.03
2022-10-30T07:25:50.870Z,101602.03
2022-10-30T07:28:18.008Z,101603.03
2022-10-30T07:30:45.071Z,101600.53
2022-10-30T07:33:12.095Z,101604.94
2022-10-30T07:35:39.519Z,101601.56
2022-10-30T07:38:10.635Z,101595.59
2022-10-30T07:40:37.776Z,101590.47
2022-10-30T07:43:05.446Z,101591.63
2022-10-30T07:45:32.878Z,101597.91
2022-10-30T07:48:01.011Z,101596.41
2022-10-30T07:50:28.535Z,101590.63
2022-10-30T07:52:55.659Z,101582.16
2022-10-30T07:55:23.036Z,101583.28
2022-10-30T07:57:50.436Z,101584.28
2022-10-30T08:00:18.131Z,101576.69
2022-10-30T08:02:51.127Z,101583.78
2022-10-30T08:05:18.430Z,101581.28
2022-10-30T08:07:46.661Z,101585.03
2022-10-30T08:10:13.924Z,101585.19
2022-10-30T08:12:43.870Z,101586.31
2022-10-30T08:15:11.746Z,101587.34
2022-10-30T08:17:43.600Z,101584.84
2022-10-30T08:20:12.034Z,101589.41
2022-10-30T08:22:55.750Z,101596.53
2022-10-30T08:25:26.040Z,101591.47
2022-10-30T08:27:55.767Z,101596.88
2022-10-30T08:30:24.705Z,101584.78
2022-10-30T08:32:51.738Z,101595.44
2022-10-30T08:35:20.233Z,101586.88
2022-10-30T08:37:47.772Z,101593.06
2022-10-30T08:40:14.832Z,101594.09
2022-10-30T08:42:41.896Z,101595.13
2022-10-30T08:45:09.254Z,101583.09
2022-10-30T08:47:36.311Z,101586.69
2022-10-30T08:50:03.450Z,101578.97
2022-10-30T08:52:30.946Z,101576.44
2022-10-30T08:54:58.001Z,101584.31
2022-10-30T08:57:25.802Z,101591.38
2022-10-30T08:59:52.810Z,101590.53
2022-10-30T09:02:20.125Z,101588.91
2022-10-30T09:04:47.263Z,101588.91
2022-10-30T09:07:14.317Z,101593.38
2022-10-30T09:09:41.311Z,101589.13
2022-10-30T09:12:08.315Z,101587.44
2022-10-30T09:14:35.398Z,101589.28
2022-10-30T09:17:02.491Z,101587.59
2022-10-30T09:19:29.952Z,101592.06
2022-10-30T09:21:56.957Z,101586.03
2022-10-30T09:24:23.940Z,101573.00
2022-10-30T09:26:51.593Z,101571.38
2022-10-30T09:29:18.598Z,101569.72
2022-10-30T09:31:45.620Z,101575.03
2022-10-30T09:34:12.613Z,101564.69
2022-10-30T09:36:39.986Z,101563.91
2022-10-30T09:39:07.017Z,101564.00
2022-10-30T09:42:07.236Z,101575.38
2022-10-30T09:45:08.072Z,101583.31
2022-10-30T09:47:56.929Z,101589.47
2022-10-30T09:50:57.746Z,101602.56
2022-10-30T09:53:50.503Z,101601.78
2022-10-30T09:56:40.005Z,101605.38
2022-10-30T09:59:28.835Z,101601.91
2022-10-30T10:02:13.016Z,101607.13
2022-10-30T10:04:48.204Z,101608.03
2022-10-30T10:07:30.003Z,101609.75
2022-10-30T10:10:03.313Z,101613.25
2022-10-30T10:13:01.439Z,101604.53
2022-10-30T10:15:39.745Z,101597.59
2022-10-30T10:18:16.335Z,101597.59
2022-10-30T10:20:48.259Z,101596.78
2022-10-30T10:23:19.511Z,101599.47
2022-10-30T10:25:54.483Z,101600.41
2022-10-30T10:28:41.667Z,101597.84
2022-10-30T10:31:37.381Z,101600.50
2022-10-30T10:34:29.951Z,101603.13
2022-10-30T10:37:08.941Z,101604.91
2022-10-30T10:40:00.065Z,101602.31
2022-10-30T10:42:42.059Z,101589.25
2022-10-30T10:45:23.319Z,101600.63
2022-10-30T10:48:02.811Z,101588.47
2022-10-30T10:50:38.918Z,101596.31
2022-10-30T10:53:21.067Z,101589.41
2022-10-30T10:55:52.809Z,101590.28
2022-10-30T10:58:57.650Z,101588.53
2022-10-30T11:01:36.873Z,101599.03
2022-10-30T11:04:13.558Z,101592.13
2022-10-30T11:06:43.690Z,101586.91
2022-10-30T11:09:24.630Z,101595.66
2022-10-30T11:11:53.591Z,101594.78
2022-10-30T11:14:25.455Z,101589.56
2022-10-30T11:17:10.895Z,101583.47
2022-10-30T11:19:37.878Z,101586.13
2022-10-30T11:22:28.662Z,101578.25
2022-10-30T11:24:55.948Z,101577.41
2022-10-30T11:27:22.876Z,101566.94
2022-10-30T11:29:57.412Z,101556.47
2022-10-30T11:32:28.495Z,101558.22
2022-10-30T11:35:07.611Z,101562.56
2022-10-30T11:37:36.985Z,101546.00
2022-10-30T11:40:09.967Z,101552.09
2022-10-30T11:42:40.510Z,101544.25
2022-10-30T11:45:16.596Z,101553.84
2022-10-30T11:47:43.854Z,101553.84
2022-10-30T11:50:22.912Z,101551.22
2022-10-30T11:52:57.533Z,101551.22
2022-10-30T11:55:37.809Z,101557.34
2022-10-30T11:58:08.458Z,101552.09
2022-10-30T12:00:37.842Z,101541.63
2022-10-30T12:03:04.857Z,101550.31
2022-10-30T12:05:43.596Z,101546.00
2022-10-30T12:08:15.245Z,101548.59
2022-10-30T12:10:51.140Z,101545.97
2022-10-30T12:13:20.355Z,101538.13
2022-10-30T12:16:04.566Z,101539.00
2022-10-30T12:18:32.846Z,101533.75
2022-10-30T12:21:01.469Z,101538.13
2022-10-30T12:23:29.401Z,101535.47
2022-10-30T12:26:01.071Z,101534.63
2022-10-30T12:28:34.573Z,101522.38
2022-10-30T12:31:10.470Z,101534.59
2022-10-30T12:33:45.337Z,101538.97
2022-10-30T12:36:20.079Z,101537.22
2022-10-30T12:38:49.409Z,101534.59
2022-10-30T12:41:29.542Z,101524.97
2022-10-30T12:44:21.378Z,101524.13
2022-10-30T12:47:21.328Z,101529.34
2022-10-30T12:49:52.829Z,101528.47
2022-10-30T12:52:33.140Z,101523.22
2022-10-30T12:55:34.183Z,101526.69
2022-10-30T12:58:05.359Z,101522.34
2022-10-30T13:00:42.886Z,101517.97
2022-10-30T13:03:12.587Z,101523.22
2022-10-30T13:05:45.761Z,101509.25
2022-10-30T13:08:21.675Z,101513.59
2022-10-30T13:11:16.999Z,101505.72
2022-10-30T13:13:49.907Z,101501.34
2022-10-30T13:16:22.606Z,101493.50
2022-10-30T13:18:51.953Z,101503.09
2022-10-30T13:21:25.798Z,101506.59
2022-10-30T13:24:06.560Z,101504.84
2022-10-30T13:26:47.373Z,101500.47
2022-10-30T13:29:29.135Z,101496.13
2022-10-30T13:32:23.256Z,101496.13
2022-10-30T13:35:04.990Z,101498.75
2022-10-30T13:37:47.102Z,101498.72
2022-10-30T13:40:40.305Z,101505.72
2022-10-30T13:43:30.136Z,101514.47
2022-10-30T13:46:26.971Z,101501.38
2022-10-30T13:49:29.182Z,101504.84
2022-10-30T13:52:16.470Z,101519.72
2022-10-30T13:54:55.323Z,101509.25
2022-10-30T13:57:46.487Z,101508.38
2022-10-30T14:00:14.306Z,101511.88
2022-10-30T14:02:41.424Z,101514.47
2022-10-30T14:05:52.941Z,101508.41
2022-10-30T14:11:06.025Z,101509.28
2022-10-30T14:13:35.820Z,101510.19
2022-10-30T14:16:07.204Z,101514.56
2022-10-30T14:18:45.808Z,101509.31
2022-10-30T14:21:58.287Z,101513.69
2022-10-30T14:24:31.848Z,101514.56
2022-10-30T14:27:04.600Z,101514.56
2022-10-30T14:29:34.743Z,101514.53
2022-10-30T14:32:13.838Z,101510.19
2022-10-30T14:34:47.649Z,101505.81
2022-10-30T14:37:14.637Z,101512.78
2022-10-30T14:39:46.062Z,101511.84
2022-10-30T14:42:47.586Z,101509.22
2022-10-30T14:45:19.707Z,101494.34
2022-10-30T14:48:01.950Z,101484.69
2022-10-30T14:51:12.945Z,101488.19
2022-10-30T14:54:00.503Z,101503.06
2022-10-30T14:56:41.061Z,101507.41
2022-10-30T14:59:13.833Z,101503.97
2022-10-30T15:01:52.668Z,101502.25
2022-10-30T15:04:43.120Z,101505.81
2022-10-30T15:07:28.847Z,101516.31
2022-10-30T15:10:16.943Z,101516.31
2022-10-30T15:12:51.405Z,101515.41
2022-10-30T15:15:19.533Z,101532.00
2022-10-30T15:17:52.950Z,101527.66
2022-10-30T15:20:25.736Z,101526.81
2022-10-30T15:22:55.999Z,101513.72
2022-10-30T15:25:33.455Z,101525.94
2022-10-30T15:28:02.671Z,101540.78
2022-10-30T15:30:30.824Z,101544.25
2022-10-30T15:32:58.380Z,101554.69
2022-10-30T15:35:27.630Z,101551.22
2022-10-30T15:38:09.705Z,101564.28
2022-10-30T15:40:40.654Z,101576.47
2022-10-30T15:43:11.785Z,101575.56
2022-10-30T15:45:44.287Z,101568.59
2022-10-30T15:48:36.351Z,101578.16
2022-10-30T15:51:06.675Z,101578.13
2022-10-30T15:53:38.788Z,101589.50
2022-10-30T15:56:11.826Z,101600.84
2022-10-30T15:58:43.011Z,101599.03
2022-10-30T16:01:24.780Z,101611.22
2022-10-30T16:03:53.913Z,101613.81
2022-10-30T16:06:25.223Z,101620.78
2022-10-30T16:08:52.578Z,101617.28
2022-10-30T16:11:22.599Z,101626.00
2022-10-30T16:13:50.591Z,101633.81
2022-10-30T16:16:29.110Z,101628.56
2022-10-30T16:19:01.984Z,101637.28
2022-10-30T16:21:31.371Z,101632.03
2022-10-30T16:24:04.387Z,101631.13
2022-10-30T16:26:37.089Z,101641.59
2022-10-30T16:29:12.957Z,101638.09
2022-10-30T16:31:42.960Z,101628.53
2022-10-30T16:34:38.183Z,101637.25
2022-10-30T16:37:06.830Z,101646.81
2022-10-30T16:39:35.154Z,101642.41
2022-10-30T16:42:02.604Z,101652.88
2022-10-30T16:44:32.400Z,101660.72
2022-10-30T16:47:17.605Z,101671.09
2022-10-30T16:49:52.240Z,101667.56
2022-10-30T16:52:27.022Z,101668.34
2022-10-30T16:55:05.550Z,101666.53
2022-10-30T16:57:36.677Z,101673.47
2022-10-30T17:00:04.869Z,101677.78
2022-10-30T17:02:36.738Z,101670.75
2022-10-30T17:05:26.000Z,101687.25
2022-10-30T17:07:55.682Z,101681.94
2022-10-30T17:10:32.730Z,101690.66
2022-10-30T17:13:37.156Z,101701.91
2022-10-30T17:16:18.865Z,101691.41
2022-10-30T17:18:49.537Z,101680.06
2022-10-30T17:21:38.536Z,101689.59
2022-10-30T17:24:06.156Z,101687.84
2022-10-30T17:26:39.544Z,101684.31
2022-10-30T17:29:06.538Z,101688.63
2022-10-30T17:31:36.327Z,101679.06
2022-10-30T17:34:13.861Z,101680.75
2022-10-30T17:36:41.293Z,101673.81
2022-10-30T17:39:08.628Z,101672.91
2022-10-30T17:41:35.786Z,101687.72
2022-10-30T17:44:03.694Z,101688.56
2022-10-30T17:46:31.758Z,101684.16
2022-10-30T17:48:59.478Z,101684.13
2022-10-30T17:51:26.613Z,101679.72
2022-10-30T17:53:53.728Z,101667.53
2022-10-30T17:56:31.935Z,101694.47
2022-10-30T17:58:59.446Z,101718.72
2022-10-30T18:01:27.442Z,101723.03
2022-10-30T18:03:55.565Z,101713.41
2022-10-30T18:06:25.849Z,101722.91
2022-10-30T18:08:53.777Z,101730.72
2022-10-30T18:11:23.998Z,101734.09
2022-10-30T18:13:52.013Z,101735.81
2022-10-30T18:16:20.467Z,101735.72
2022-10-30T18:18:47.724Z,101743.53
2022-10-30T18:21:17.461Z,101747.84
2022-10-30T18:23:53.208Z,101751.31
2022-10-30T18:26:23.695Z,101755.66
2022-10-30T18:28:51.118Z,101758.19
2022-10-30T18:31:21.165Z,101767.72
2022-10-30T18:33:48.647Z,101778.06
2022-10-30T18:36:18.631Z,101765.00
2022-10-30T18:38:45.971Z,101773.69
2022-10-30T18:41:19.216Z,101775.38
2022-10-30T18:43:47.355Z,101778.75
2022-10-30T18:46:15.618Z,101789.16
2022-10-30T18:48:43.452Z,101790.00
2022-10-30T18:51:23.518Z,101804.78
2022-10-30T18:53:53.657Z,101809.16
2022-10-30T18:56:23.365Z,101810.03
2022-10-30T18:58:54.841Z,101803.94
2022-10-30T19:01:26.981Z,101801.31
2022-10-30T19:03:54.097Z,101796.06
2022-10-30T19:06:24.038Z,101792.50
2022-10-30T19:08:51.276Z,101787.19
2022-10-30T19:11:24.484Z,101796.69
2022-10-30T19:13:54.220Z,101791.38
2022-10-30T19:16:24.477Z,101792.16
2022-10-30T19:18:51.493Z,101799.97
2022-10-30T19:21:27.888Z,101812.97
2022-10-30T19:23:56.142Z,101813.75
2022-10-30T19:26:23.131Z,101808.47
2022-10-30T19:28:50.181Z,101810.13
2022-10-30T19:31:19.121Z,101823.97
2022-10-30T19:33:50.031Z,101808.16
2022-10-30T19:36:27.754Z,101823.81
2022-10-30T19:38:55.819Z,101825.53
2022-10-30T19:41:24.643Z,101825.47
2022-10-30T19:43:53.157Z,101811.53
2022-10-30T19:46:20.617Z,101816.88
2022-10-30T19:49:02.853Z,101823.78
2022-10-30T19:51:30.264Z,101825.47
2022-10-30T19:53:57.304Z,101823.75
2022-10-30T19:56:24.300Z,101829.75
2022-10-30T19:58:51.295Z,101827.94
2022-10-30T20:01:18.527Z,101833.91
2022-10-30T20:03:45.654Z,101833.78
2022-10-30T20:06:13.335Z,101841.47
2022-10-30T20:08:40.780Z,101854.47
2022-10-30T20:11:07.984Z,101861.38
2022-10-30T20:13:35.387Z,101873.38
2022-10-30T20:16:04.745Z,101870.66
2022-10-30T20:18:34.991Z,101878.44
2022-10-30T20:21:10.444Z,101875.81
2022-10-30T20:23:37.554Z,101870.53
2022-10-30T20:26:07.735Z,101873.94
2022-10-30T20:28:42.498Z,101876.44
2022-10-30T20:31:11.246Z,101880.69
2022-10-30T20:33:38.612Z,101866.53
2022-10-30T20:36:05.917Z,101874.38
2022-10-30T20:38:34.206Z,101878.69
2022-10-30T20:41:04.113Z,101874.22
2022-10-30T20:43:38.576Z,101880.25
2022-10-30T20:46:09.230Z,101870.59
2022-10-30T20:48:37.798Z,101867.91
2022-10-30T20:51:06.608Z,101871.44
2022-10-30T20:53:33.966Z,101871.34
2022-10-30T20:56:04.288Z,101880.00
2022-10-30T20:58:31.428Z,101885.19
2022-10-30T21:00:59.513Z,101882.56
2022-10-30T21:03:27.667Z,101892.09
2022-10-30T21:06:02.045Z,101891.16
2022-10-30T21:08:31.912Z,101900.59
2022-10-30T21:11:01.284Z,101902.28
2022-10-30T21:13:28.891Z,101903.13
2022-10-30T21:16:02.015Z,101899.53
2022-10-30T21:18:29.504Z,101898.59
2022-10-30T21:21:02.921Z,101908.16
2022-10-30T21:23:32.274Z,101901.19
2022-10-30T21:26:06.829Z,101905.47
2022-10-30T21:28:34.074Z,101898.53
2022-10-30T21:31:05.819Z,101896.75
2022-10-30T21:33:34.750Z,101892.31
2022-10-30T21:36:13.893Z,101895.78
2022-10-30T21:38:42.202Z,101895.75
2022-10-30T21:41:14.278Z,101898.31
2022-10-30T21:43:41.670Z,101897.41
2022-10-30T21:46:10.882Z,101893.78
2022-10-30T21:48:38.535Z,101893.75
2022-10-30T21:51:14.019Z,101897.28
2022-10-30T21:53:41.637Z,101901.50
2022-10-30T21:56:29.283Z,101908.34
2022-10-30T21:58:59.294Z,101896.63
2022-10-30T22:01:32.169Z,101915.75
2022-10-30T22:04:01.473Z,101921.66
2022-10-30T22:06:29.267Z,101922.28
2022-10-30T22:08:57.005Z,101919.53
2022-10-30T22:11:26.548Z,101928.03
2022-10-30T22:13:55.069Z,101917.53
2022-10-30T22:16:22.614Z,101922.69
2022-10-30T22:18:49.753Z,101906.91
2022-10-30T22:21:17.118Z,101913.84
2022-10-30T22:23:44.308Z,101914.63
2022-10-30T22:26:20.380Z,101907.41
2022-10-30T22:28:47.727Z,101906.47
2022-10-30T22:31:17.991Z,101910.69
2022-10-30T22:33:45.830Z,101907.84
2022-10-30T22:36:16.322Z,101924.28
2022-10-30T22:38:43.495Z,101912.75
2022-10-30T22:41:15.958Z,101924.91
2022-10-30T22:43:44.850Z,101925.56
2022-10-30T22:46:12.855Z,101933.44
2022-10-30T22:48:40.714Z,101926.41
2022-10-30T22:51:13.545Z,101929.75
2022-10-30T22:53:44.815Z,101926.09
2022-10-30T22:56:14.702Z,101929.53
2022-10-30T22:58:42.282Z,101917.19
2022-10-30T23:01:15.360Z,101925.88
2022-10-30T23:03:43.165Z,101937.09
2022-10-30T23:06:10.514Z,101942.16
2022-10-30T23:08:37.658Z,101933.34
2022-10-30T23:11:05.877Z,101942.03
2022-10-30T23:13:34.382Z,101946.50
2022-10-30T23:16:13.492Z,101955.13
2022-10-30T23:18:40.872Z,101949.91
2022-10-30T23:21:12.675Z,101960.28
2022-10-30T23:23:41.204Z,101960.28
2022-10-30T23:26:20.144Z,101955.00
2022-10-30T23:28:48.720Z,101956.69
2022-10-30T23:31:38.856Z,101960.97
2022-10-30T23:34:10.747Z,101966.94
2022-10-30T23:36:38.642Z,101956.25
2022-10-30T23:39:17.016Z,101962.34
2022-10-30T23:41:44.508Z,101959.78
2022-10-30T23:44:13.734Z,101959.69
2022-10-30T23:46:40.795Z,101958.69
2022-10-30T23:49:07.840Z,101956.19
2022-10-30T23:51:34.908Z,101949.22
2022-10-30T23:54:02.648Z,101958.94
2022-10-30T23:56:30.469Z,101957.19
2022-10-30T23:58:57.843Z,101954.59
